createdAt,value
2023-09-06T00:02:16.766Z,29.20
2023-09-06T00:04:44.139Z,29.20
2023-09-06T00:07:11.822Z,29.10
2023-09-06T00:09:38.879Z,29.10
2023-09-06T00:12:06.875Z,29.10
2023-09-06T00:14:38.370Z,29.10
2023-09-06T00:17:06.222Z,29.10
2023-09-06T00:19:33.648Z,29.10
2023-09-06T00:22:02.831Z,29.10
2023-09-06T00:24:29.900Z,29.10
2023-09-06T00:26:59.678Z,29.10
2023-09-06T00:29:26.649Z,29.10
2023-09-06T00:31:53.683Z,29.00
2023-09-06T00:34:20.706Z,29.00
2023-09-06T00:36:48.182Z,29.00
2023-09-06T00:39:15.990Z,29.00
2023-09-06T00:41:43.013Z,29.00
2023-09-06T00:44:11.277Z,28.90
2023-09-06T00:46:39.705Z,28.90
2023-09-06T00:49:08.761Z,28.90
2023-09-06T00:51:36.019Z,28.90
2023-09-06T00:54:03.457Z,28.80
2023-09-06T00:56:31.440Z,28.80
2023-09-06T00:58:58.960Z,28.80
2023-09-06T01:01:26.182Z,28.80
2023-09-06T01:03:53.429Z,28.70
2023-09-06T01:06:33.283Z,28.70
2023-09-06T01:09:00.775Z,28.70
2023-09-06T01:11:29.043Z,28.70
2023-09-06T01:13:59.914Z,28.70
2023-09-06T01:16:50.223Z,28.70
2023-09-06T01:19:21.569Z,28.70
2023-09-06T01:22:07.853Z,28.60
2023-09-06T01:24:36.124Z,28.60
2023-09-06T01:27:06.037Z,28.60
2023-09-06T01:29:33.917Z,28.60
2023-09-06T01:32:00.966Z,28.60
2023-09-06T01:34:28.021Z,28.60
2023-09-06T01:36:55.192Z,28.50
2023-09-06T01:39:22.251Z,28.50
2023-09-06T01:41:49.417Z,28.50
2023-09-06T01:44:16.465Z,28.50
2023-09-06T01:46:43.607Z,28.50
2023-09-06T01:49:11.068Z,28.50
2023-09-06T01:51:38.299Z,28.50
2023-09-06T01:54:07.294Z,28.50
2023-09-06T01:56:35.261Z,28.50
2023-09-06T01:59:05.465Z,28.50
2023-09-06T02:01:32.616Z,28.40
2023-09-06T02:04:00.804Z,28.50
2023-09-06T02:06:28.008Z,28.40
2023-09-06T02:08:55.006Z,28.50
2023-09-06T02:11:22.220Z,28.50
2023-09-06T02:13:49.289Z,28.40
2023-09-06T02:16:19.445Z,28.40
2023-09-06T02:18:46.537Z,28.40
2023-09-06T02:21:13.602Z,28.40
2023-09-06T02:23:40.619Z,28.40
2023-09-06T02:26:07.659Z,28.40
2023-09-06T02:28:35.814Z,28.40
2023-09-06T02:31:03.233Z,28.40
2023-09-06T02:33:30.201Z,28.30
2023-09-06T02:35:57.294Z,28.30
2023-09-06T02:38:24.412Z,28.30
2023-09-06T02:40:53.404Z,28.30
2023-09-06T02:43:24.192Z,28.30
2023-09-06T02:45:54.947Z,28.30
2023-09-06T02:48:24.724Z,28.30
2023-09-06T02:50:53.079Z,28.30
2023-09-06T02:53:23.114Z,28.30
2023-09-06T02:55:54.313Z,28.30
2023-09-06T02:58:26.421Z,28.30
2023-09-06T03:00:59.044Z,28.30
2023-09-06T03:03:30.061Z,28.30
2023-09-06T03:05:59.385Z,28.30
2023-09-06T03:08:27.264Z,28.30
2023-09-06T03:10:54.645Z,28.30
2023-09-06T03:13:21.997Z,28.30
2023-09-06T03:15:52.899Z,28.20
2023-09-06T03:18:24.862Z,28.20
2023-09-06T03:20:56.878Z,28.20
2023-09-06T03:23:25.469Z,28.20
2023-09-06T03:25:59.485Z,28.20
2023-09-06T03:28:27.885Z,28.20
2023-09-06T03:31:00.082Z,28.20
2023-09-06T03:33:29.373Z,28.20
2023-09-06T03:35:59.326Z,28.20
2023-09-06T03:38:30.211Z,28.20
2023-09-06T03:41:03.663Z,28.20
2023-09-06T03:43:33.645Z,28.20
2023-09-06T03:46:08.794Z,28.20
2023-09-06T03:48:37.552Z,28.20
2023-09-06T03:51:14.401Z,28.20
2023-09-06T03:53:43.686Z,28.20
2023-09-06T03:56:11.864Z,28.20
2023-09-06T03:58:39.287Z,28.20
2023-09-06T04:01:06.404Z,28.20
2023-09-06T04:03:33.675Z,28.10
2023-09-06T04:06:04.510Z,28.10
2023-09-06T04:08:32.695Z,28.10
2023-09-06T04:11:00.270Z,28.10
2023-09-06T04:13:27.372Z,28.10
2023-09-06T04:15:54.801Z,28.10
2023-09-06T04:18:21.847Z,28.10
2023-09-06T04:20:50.407Z,28.10
2023-09-06T04:23:17.870Z,28.00
2023-09-06T04:25:48.195Z,28.00
2023-09-06T04:28:17.431Z,28.00
2023-09-06T04:30:49.275Z,28.00
2023-09-06T04:33:20.092Z,28.00
2023-09-06T04:35:49.545Z,28.00
2023-09-06T04:38:19.815Z,28.00
2023-09-06T04:40:48.755Z,27.90
2023-09-06T04:43:20.954Z,28.00
2023-09-06T04:45:49.904Z,27.90
2023-09-06T04:48:20.240Z,27.90
2023-09-06T04:50:48.219Z,27.90
2023-09-06T04:53:19.497Z,27.90
2023-09-06T04:55:50.918Z,27.90
2023-09-06T04:58:24.457Z,27.80
2023-09-06T05:00:51.945Z,27.80
2023-09-06T05:03:19.576Z,27.80
2023-09-06T05:05:48.625Z,27.80
2023-09-06T05:08:16.233Z,27.80
2023-09-06T05:10:43.288Z,27.70
2023-09-06T05:13:12.873Z,27.80
2023-09-06T05:15:40.628Z,27.70
2023-09-06T05:18:11.272Z,27.70
2023-09-06T05:20:41.280Z,27.70
2023-09-06T05:23:15.300Z,27.70
2023-09-06T05:25:43.818Z,27.60
2023-09-06T05:28:13.820Z,27.60
2023-09-06T05:30:44.994Z,27.60
2023-09-06T05:33:15.224Z,27.60
2023-09-06T05:35:43.236Z,27.60
2023-09-06T05:38:12.906Z,27.60
2023-09-06T05:40:43.159Z,27.60
2023-09-06T05:43:10.862Z,27.60
2023-09-06T05:45:38.015Z,27.60
2023-09-06T05:48:07.191Z,27.60
2023-09-06T05:50:35.574Z,27.60
2023-09-06T05:53:02.773Z,27.60
2023-09-06T05:55:29.838Z,27.60
2023-09-06T05:57:56.900Z,27.60
2023-09-06T06:00:25.812Z,27.60
2023-09-06T06:02:56.603Z,27.60
2023-09-06T06:05:25.258Z,27.70
2023-09-06T06:07:52.650Z,27.70
2023-09-06T06:10:19.686Z,27.60
2023-09-06T06:12:47.342Z,27.60
2023-09-06T06:15:15.190Z,27.60
2023-09-06T06:17:43.561Z,27.60
2023-09-06T06:20:12.700Z,27.60
2023-09-06T06:22:41.100Z,27.60
2023-09-06T06:25:11.624Z,27.60
2023-09-06T06:27:40.368Z,27.60
2023-09-06T06:30:09.130Z,27.50
2023-09-06T06:32:36.591Z,27.50
2023-09-06T06:35:07.360Z,27.50
2023-09-06T06:37:35.622Z,27.60
2023-09-06T06:40:03.899Z,27.60
2023-09-06T06:42:39.954Z,27.60
2023-09-06T06:45:07.757Z,27.70
2023-09-06T06:47:34.803Z,27.70
2023-09-06T06:50:07.018Z,27.70
2023-09-06T06:52:39.977Z,27.80
2023-09-06T06:55:07.491Z,27.80
2023-09-06T06:57:34.763Z,27.90
2023-09-06T07:00:07.340Z,28.00
2023-09-06T07:02:36.018Z,28.00
2023-09-06T07:05:03.844Z,28.10
2023-09-06T07:07:31.317Z,28.20
2023-09-06T07:09:58.434Z,28.20
2023-09-06T07:12:25.519Z,28.30
2023-09-06T07:14:53.220Z,28.40
2023-09-06T07:17:20.420Z,28.40
2023-09-06T07:19:47.622Z,28.50
2023-09-06T07:22:14.601Z,28.50
2023-09-06T07:24:41.649Z,28.60
2023-09-06T07:27:08.758Z,28.60
2023-09-06T07:29:35.996Z,28.70
2023-09-06T07:32:04.608Z,28.70
2023-09-06T07:34:32.006Z,28.80
2023-09-06T07:36:59.215Z,28.80
2023-09-06T07:39:27.447Z,28.80
2023-09-06T07:41:55.397Z,28.90
2023-09-06T07:44:22.406Z,29.00
2023-09-06T07:46:50.290Z,29.00
2023-09-06T07:49:17.729Z,29.00
2023-09-06T07:51:45.172Z,29.00
2023-09-06T07:54:12.769Z,29.10
2023-09-06T07:56:40.678Z,29.10
2023-09-06T07:59:14.566Z,29.20
2023-09-06T08:01:42.066Z,29.20
2023-09-06T08:04:11.348Z,29.20
2023-09-06T08:06:38.618Z,29.20
2023-09-06T08:09:06.074Z,29.30
2023-09-06T08:11:33.298Z,29.30
2023-09-06T08:14:00.350Z,29.30
2023-09-06T08:16:27.489Z,29.30
2023-09-06T08:18:57.721Z,29.30
2023-09-06T08:21:24.835Z,29.40
2023-09-06T08:23:53.101Z,29.40
2023-09-06T08:26:20.727Z,29.40
2023-09-06T08:28:47.895Z,29.40
2023-09-06T08:31:15.167Z,29.40
2023-09-06T08:33:42.969Z,29.40
2023-09-06T08:36:10.235Z,29.40
2023-09-06T08:38:40.091Z,29.40
2023-09-06T08:41:09.110Z,29.40
2023-09-06T08:43:42.502Z,29.40
2023-09-06T08:46:34.587Z,29.40
2023-09-06T08:49:07.232Z,29.50
2023-09-06T08:51:38.027Z,29.50
2023-09-06T08:54:08.906Z,29.50
2023-09-06T08:56:36.869Z,29.50
2023-09-06T08:59:07.553Z,29.60
2023-09-06T09:01:39.098Z,29.60
2023-09-06T09:04:06.796Z,29.60
2023-09-06T09:06:34.057Z,29.60
2023-09-06T09:09:21.425Z,29.60
2023-09-06T09:11:54.396Z,29.70
2023-09-06T09:14:25.001Z,29.70
2023-09-06T09:17:00.573Z,29.70
2023-09-06T09:19:28.386Z,29.80
2023-09-06T09:21:58.689Z,29.70
2023-09-06T09:24:31.057Z,29.70
2023-09-06T09:26:58.586Z,29.80
2023-09-06T09:29:26.899Z,29.80
2023-09-06T09:31:54.076Z,29.80
2023-09-06T09:34:22.649Z,29.80
2023-09-06T09:36:53.193Z,29.80
2023-09-06T09:39:27.875Z,29.80
2023-09-06T09:42:00.255Z,29.90
2023-09-06T09:44:27.899Z,29.90
2023-09-06T09:47:06.662Z,29.90
2023-09-06T09:49:44.494Z,29.90
2023-09-06T09:52:32.446Z,29.90
2023-09-06T09:55:03.802Z,30.00
2023-09-06T09:57:32.790Z,29.70
2023-09-06T10:00:00.607Z,30.00
2023-09-06T10:02:40.257Z,30.00
2023-09-06T10:05:13.735Z,30.00
2023-09-06T10:07:49.420Z,30.00
2023-09-06T10:10:19.504Z,30.10
2023-09-06T10:12:50.381Z,30.10
2023-09-06T10:15:21.247Z,30.10
2023-09-06T10:17:49.491Z,30.10
2023-09-06T10:20:16.880Z,30.10
2023-09-06T10:22:47.508Z,30.20
2023-09-06T10:25:17.644Z,30.20
2023-09-06T10:27:50.164Z,30.40
2023-09-06T10:30:30.081Z,30.50
2023-09-06T10:32:57.658Z,30.50
2023-09-06T10:35:32.649Z,30.60
2023-09-06T10:38:16.101Z,30.70
2023-09-06T10:40:50.584Z,30.80
2023-09-06T10:43:55.417Z,31.00
2023-09-06T10:46:28.640Z,31.00
2023-09-06T10:49:21.440Z,31.20
2023-09-06T10:52:05.622Z,31.30
2023-09-06T10:54:43.122Z,31.40
2023-09-06T10:57:13.034Z,31.40
2023-09-06T10:59:56.717Z,31.50
2023-09-06T11:02:23.863Z,31.50
2023-09-06T11:05:33.220Z,31.60
2023-09-06T11:08:01.480Z,31.70
2023-09-06T11:10:29.001Z,31.80
2023-09-06T11:12:57.924Z,31.90
2023-09-06T11:15:25.780Z,32.00
2023-09-06T11:18:01.563Z,32.00
2023-09-06T11:20:28.670Z,32.20
2023-09-06T11:23:01.862Z,32.30
2023-09-06T11:25:32.845Z,32.40
2023-09-06T11:28:15.224Z,32.60
2023-09-06T11:30:43.926Z,32.70
2023-09-06T11:33:12.732Z,32.80
2023-09-06T11:35:49.692Z,32.90
2023-09-06T11:38:21.595Z,33.10
2023-09-06T11:40:49.049Z,33.20
2023-09-06T11:43:18.603Z,33.40
2023-09-06T11:45:48.104Z,33.50
2023-09-06T11:48:20.477Z,33.60
2023-09-06T11:50:52.875Z,33.70
2023-09-06T11:53:20.212Z,33.80
2023-09-06T11:55:50.722Z,33.90
2023-09-06T11:58:18.263Z,34.00
2023-09-06T12:00:52.038Z,34.10
2023-09-06T12:03:23.325Z,34.20
2023-09-06T12:05:55.560Z,34.30
2023-09-06T12:08:24.940Z,34.50
2023-09-06T12:11:09.333Z,34.50
2023-09-06T12:13:38.581Z,34.60
2023-09-06T12:16:09.418Z,34.70
2023-09-06T12:18:39.061Z,34.80
2023-09-06T12:21:08.507Z,34.70
2023-09-06T12:23:38.797Z,35.00
2023-09-06T12:26:07.222Z,35.10
2023-09-06T12:28:34.762Z,35.10
2023-09-06T12:33:37.241Z,35.30
2023-09-06T12:36:06.524Z,35.50
2023-09-06T12:38:33.930Z,35.60
2023-09-06T12:41:03.056Z,35.70
2023-09-06T12:43:32.937Z,35.70
2023-09-06T12:46:00.513Z,35.80
2023-09-06T12:48:28.201Z,36.00
2023-09-06T12:50:57.964Z,36.00
2023-09-06T12:53:25.675Z,36.10
2023-09-06T12:55:53.086Z,36.20
2023-09-06T12:58:20.228Z,36.30
2023-09-06T13:00:47.983Z,36.40
2023-09-06T13:03:15.218Z,36.40
2023-09-06T13:05:43.674Z,36.50
2023-09-06T13:08:11.339Z,36.60
2023-09-06T13:10:40.407Z,36.70
2023-09-06T13:13:08.043Z,36.80
2023-09-06T13:15:36.563Z,36.80
2023-09-06T13:18:04.972Z,36.80
2023-09-06T13:20:35.124Z,36.90
2023-09-06T13:23:02.748Z,36.90
2023-09-06T13:25:30.345Z,36.70
2023-09-06T13:27:57.903Z,36.60
2023-09-06T13:30:25.200Z,36.50
2023-09-06T13:32:54.018Z,36.30
2023-09-06T13:35:21.261Z,36.10
2023-09-06T13:37:48.441Z,35.90
2023-09-06T13:40:17.218Z,35.70
2023-09-06T13:42:46.119Z,35.50
2023-09-06T13:45:13.300Z,35.30
2023-09-06T13:47:40.556Z,35.10
2023-09-06T13:50:08.731Z,34.90
2023-09-06T13:52:35.831Z,34.70
2023-09-06T13:55:03.240Z,34.50
2023-09-06T13:57:30.336Z,34.40
2023-09-06T13:59:57.658Z,34.20
2023-09-06T14:02:26.480Z,34.10
2023-09-06T14:04:57.376Z,33.90
2023-09-06T14:07:24.699Z,33.80
2023-09-06T14:09:51.784Z,33.70
2023-09-06T14:12:18.836Z,33.50
2023-09-06T14:14:45.915Z,33.40
2023-09-06T14:17:13.028Z,33.30
2023-09-06T14:19:40.138Z,33.20
2023-09-06T14:22:11.619Z,33.10
2023-09-06T14:24:39.647Z,33.10
2023-09-06T14:27:06.688Z,33.00
2023-09-06T14:29:34.096Z,32.90
2023-09-06T14:32:02.118Z,32.80
2023-09-06T14:34:29.439Z,32.80
2023-09-06T14:36:56.658Z,32.80
2023-09-06T14:39:24.560Z,32.70
2023-09-06T14:41:52.138Z,32.60
2023-09-06T14:44:19.680Z,32.60
2023-09-06T14:46:49.366Z,32.60
2023-09-06T14:49:16.620Z,32.50
2023-09-06T14:51:43.784Z,32.40
2023-09-06T14:54:10.869Z,32.40
2023-09-06T14:56:38.750Z,32.30
2023-09-06T14:59:06.276Z,32.30
2023-09-06T15:01:34.784Z,32.30
2023-09-06T15:04:02.317Z,32.20
2023-09-06T15:06:43.555Z,32.20
2023-09-06T15:09:16.710Z,32.20
2023-09-06T15:11:43.755Z,32.20
2023-09-06T15:14:12.168Z,32.20
2023-09-06T15:16:39.417Z,32.20
2023-09-06T15:19:06.976Z,32.20
2023-09-06T15:21:35.882Z,32.30
2023-09-06T15:24:05.764Z,32.30
2023-09-06T15:26:33.231Z,32.40
2023-09-06T15:29:00.367Z,32.30
2023-09-06T15:31:29.278Z,32.40
2023-09-06T15:33:56.666Z,32.40
2023-09-06T15:36:26.857Z,32.40
2023-09-06T15:38:54.743Z,32.40
2023-09-06T15:41:21.725Z,32.30
2023-09-06T15:43:48.918Z,32.30
2023-09-06T15:46:16.323Z,32.30
2023-09-06T15:48:43.725Z,32.30
2023-09-06T15:51:10.790Z,32.20
2023-09-06T15:53:37.918Z,32.20
2023-09-06T15:56:05.368Z,32.20
2023-09-06T15:58:32.649Z,32.10
2023-09-06T16:01:01.319Z,32.10
2023-09-06T16:03:28.667Z,32.10
2023-09-06T16:05:56.101Z,32.10
2023-09-06T16:08:24.855Z,32.00
2023-09-06T16:10:54.948Z,34.70
2023-09-06T16:13:22.012Z,32.00
2023-09-06T16:15:49.107Z,32.00
2023-09-06T16:18:16.223Z,31.90
2023-09-06T16:20:43.795Z,31.90
2023-09-06T16:23:12.368Z,31.80
2023-09-06T16:25:39.397Z,31.90
2023-09-06T16:28:06.584Z,31.80
2023-09-06T16:30:35.799Z,31.80
2023-09-06T16:33:04.085Z,31.80
2023-09-06T16:35:32.365Z,31.80
2023-09-06T16:38:01.591Z,31.80
2023-09-06T16:40:28.762Z,31.70
2023-09-06T16:42:56.044Z,31.70
2023-09-06T16:45:23.253Z,31.70
2023-09-06T16:47:51.688Z,31.70
2023-09-06T16:50:20.023Z,31.60
2023-09-06T16:52:47.718Z,31.60
2023-09-06T16:55:15.777Z,31.60
2023-09-06T16:57:43.623Z,31.60
2023-09-06T17:00:14.441Z,31.60
2023-09-06T17:02:42.502Z,31.60
2023-09-06T17:05:11.776Z,31.60
2023-09-06T17:07:39.172Z,31.60
2023-09-06T17:10:09.611Z,31.50
2023-09-06T17:12:38.504Z,31.50
2023-09-06T17:15:22.431Z,31.50
2023-09-06T17:17:51.518Z,31.50
2023-09-06T17:20:23.113Z,31.50
2023-09-06T17:22:51.628Z,31.40
2023-09-06T17:25:22.386Z,31.50
2023-09-06T17:27:49.856Z,31.40
2023-09-06T17:30:23.570Z,31.40
2023-09-06T17:33:15.288Z,31.40
2023-09-06T17:35:46.239Z,31.40
2023-09-06T17:38:16.035Z,31.40
2023-09-06T17:40:49.143Z,31.30
2023-09-06T17:43:17.234Z,31.30
2023-09-06T17:45:48.135Z,31.30
2023-09-06T17:48:17.599Z,31.30
2023-09-06T17:50:52.266Z,31.30
2023-09-06T17:53:22.793Z,31.20
2023-09-06T17:55:51.628Z,31.20
2023-09-06T17:58:19.533Z,31.30
2023-09-06T18:00:49.351Z,31.20
2023-09-06T18:03:19.306Z,31.20
2023-09-06T18:05:57.350Z,31.20
2023-09-06T18:08:28.085Z,31.20
2023-09-06T18:10:55.986Z,31.20
2023-09-06T18:13:23.192Z,31.20
2023-09-06T18:15:58.897Z,31.20
2023-09-06T18:18:25.971Z,31.10
2023-09-06T18:20:56.506Z,31.10
2023-09-06T18:23:23.659Z,31.10
2023-09-06T18:25:57.722Z,31.10
2023-09-06T18:28:24.958Z,31.10
2023-09-06T18:30:54.566Z,31.10
2023-09-06T18:33:23.451Z,31.10
2023-09-06T18:35:53.470Z,31.00
2023-09-06T18:38:23.082Z,31.10
2023-09-06T18:40:53.699Z,31.00
2023-09-06T18:43:23.540Z,31.00
2023-09-06T18:45:52.282Z,31.10
2023-09-06T18:48:23.598Z,31.00
2023-09-06T18:50:51.637Z,31.00
2023-09-06T18:53:18.852Z,31.00
2023-09-06T18:55:49.829Z,31.00
2023-09-06T18:58:20.224Z,31.00
2023-09-06T19:00:47.839Z,31.00
2023-09-06T19:03:15.709Z,31.00
2023-09-06T19:05:43.840Z,31.00
2023-09-06T19:08:16.531Z,30.90
2023-09-06T19:10:52.727Z,31.00
2023-09-06T19:13:21.361Z,31.00
2023-09-06T19:15:49.493Z,30.90
2023-09-06T19:18:17.870Z,30.90
2023-09-06T19:20:46.028Z,30.90
2023-09-06T19:23:18.282Z,30.90
2023-09-06T19:25:53.500Z,30.90
2023-09-06T19:28:23.548Z,30.90
2023-09-06T19:30:57.892Z,30.90
2023-09-06T19:33:28.316Z,30.80
2023-09-06T19:35:59.856Z,30.90
2023-09-06T19:38:28.158Z,30.80
2023-09-06T19:40:56.313Z,30.80
2023-09-06T19:43:25.532Z,30.80
2023-09-06T19:45:58.398Z,30.80
2023-09-06T19:48:27.025Z,30.80
2023-09-06T19:50:55.900Z,30.80
2023-09-06T19:53:23.814Z,30.80
2023-09-06T19:55:52.172Z,30.70
2023-09-06T19:58:20.906Z,30.70
2023-09-06T20:00:48.764Z,30.70
2023-09-06T20:03:18.436Z,30.70
2023-09-06T20:05:48.379Z,30.70
2023-09-06T20:08:16.081Z,30.70
2023-09-06T20:10:47.589Z,30.70
2023-09-06T20:13:14.874Z,30.60
2023-09-06T20:15:42.457Z,30.60
2023-09-06T20:18:09.663Z,30.60
2023-09-06T20:20:39.235Z,30.60
2023-09-06T20:23:07.290Z,30.50
2023-09-06T20:25:34.492Z,30.50
2023-09-06T20:28:01.624Z,30.50
2023-09-06T20:30:29.159Z,30.50
2023-09-06T20:32:56.690Z,30.50
2023-09-06T20:35:25.338Z,30.40
2023-09-06T20:37:52.797Z,30.40
2023-09-06T20:40:23.607Z,30.40
2023-09-06T20:42:50.812Z,30.40
2023-09-06T20:45:18.037Z,30.40
2023-09-06T20:47:45.856Z,30.30
2023-09-06T20:50:15.906Z,30.30
2023-09-06T20:52:43.071Z,30.30
2023-09-06T20:55:10.211Z,30.30
2023-09-06T20:57:38.044Z,30.30
2023-09-06T21:00:10.423Z,30.20
2023-09-06T21:02:38.234Z,30.30
2023-09-06T21:05:05.921Z,30.20
2023-09-06T21:07:33.541Z,30.20
2023-09-06T21:10:00.738Z,30.20
2023-09-06T21:12:28.353Z,30.10
2023-09-06T21:14:55.647Z,30.20
2023-09-06T21:17:22.813Z,30.10
2023-09-06T21:19:58.986Z,30.10
2023-09-06T21:22:26.224Z,30.10
2023-09-06T21:24:53.362Z,30.10
2023-09-06T21:27:20.488Z,30.00
2023-09-06T21:29:50.224Z,30.10
2023-09-06T21:32:17.396Z,30.00
2023-09-06T21:34:45.047Z,30.00
2023-09-06T21:37:12.197Z,30.00
2023-09-06T21:39:42.094Z,30.00
2023-09-06T21:42:10.099Z,29.90
2023-09-06T21:44:39.701Z,29.90
2023-09-06T21:47:07.175Z,29.90
2023-09-06T21:49:34.389Z,29.90
2023-09-06T21:52:01.535Z,29.90
2023-09-06T21:54:28.593Z,29.90
2023-09-06T21:56:55.819Z,29.80
2023-09-06T21:59:22.891Z,29.80
2023-09-06T22:01:49.952Z,29.80
2023-09-06T22:04:17.214Z,29.80
2023-09-06T22:06:44.672Z,29.80
2023-09-06T22:09:11.717Z,29.80
2023-09-06T22:11:38.693Z,29.80
2023-09-06T22:14:05.791Z,29.70
2023-09-06T22:16:32.996Z,29.70
2023-09-06T22:19:00.194Z,29.70
2023-09-06T22:21:27.664Z,29.70
2023-09-06T22:23:54.852Z,29.70
2023-09-06T22:26:21.932Z,29.70
2023-09-06T22:28:50.105Z,29.60
2023-09-06T22:31:17.239Z,29.60
2023-09-06T22:33:44.546Z,29.60
2023-09-06T22:36:11.897Z,29.60
2023-09-06T22:38:38.896Z,29.60
2023-09-06T22:41:06.203Z,29.60
2023-09-06T22:43:33.320Z,29.50
2023-09-06T22:46:00.452Z,29.50
2023-09-06T22:48:37.263Z,29.50
2023-09-06T22:51:14.867Z,29.50
2023-09-06T22:53:42.023Z,29.50
2023-09-06T22:56:10.047Z,29.50
2023-09-06T22:58:37.098Z,29.40
2023-09-06T23:01:08.663Z,29.50
2023-09-06T23:03:35.887Z,29.40
2023-09-06T23:06:08.073Z,29.40
2023-09-06T23:08:36.262Z,29.40
2023-09-06T23:11:06.592Z,29.40
2023-09-06T23:13:35.127Z,29.40
2023-09-06T23:16:02.248Z,29.40
2023-09-06T23:18:30.750Z,29.30
2023-09-06T23:21:06.378Z,29.40
2023-09-06T23:23:34.694Z,29.30
2023-09-06T23:26:05.501Z,29.30
2023-09-06T23:28:35.515Z,29.30
2023-09-06T23:31:06.930Z,29.30
2023-09-06T23:33:40.943Z,29.30
2023-09-06T23:36:10.332Z,29.30
2023-09-06T23:38:38.596Z,29.30
2023-09-06T23:41:05.730Z,29.20
2023-09-06T23:43:32.854Z,29.30
2023-09-06T23:46:01.722Z,29.20
2023-09-06T23:48:29.347Z,29.20
2023-09-06T23:50:59.476Z,29.20
2023-09-06T23:53:27.178Z,29.20
2023-09-06T23:55:58.290Z,29.20
2023-09-06T23:58:25.568Z,29.20
